< < Back
Terminal Aerodrome Forecast


Current Version              Previous Versions:   1  2  3  4  5  6  7  8  9  

Terminal Aerodrome Forecast

926
FTUS42 KFFC 070930 AAB
TAFATL
TAF AMD
KATL 070930Z 0710/0812 26004KT P6SM FEW200
     FM071600 27006KT P6SM FEW050
     FM080200 26005KT P6SM FEW150
     FM080900 28002KT P6SM SKC=



Latest METAR

985
SAUS70 KWBC 071100 RRG
MTRATL
METAR KATL 071052Z 27004KT 9SM FEW200 22/20 A3016 RMK AO2 SLP203
T02220200


USA.gov is the U.S. government's official web portal to all federal, state and local government web resources and services.